sensor_id;sensor_type;location;lat;lon;timestamp;P1;durP1;ratioP1;P2;durP2;ratioP2
17725;SDS011;8983;53.156;17.960;2022-12-18T00:02:02;49.10;;;21.47;;
17725;SDS011;8983;53.156;17.960;2022-12-18T00:04:31;49.30;;;18.20;;
17725;SDS011;8983;53.156;17.960;2022-12-18T00:06:59;54.77;;;19.57;;
17725;SDS011;8983;53.156;17.960;2022-12-18T00:09:28;53.80;;;20.10;;
17725;SDS011;8983;53.156;17.960;2022-12-18T00:12:05;51.13;;;19.63;;
17725;SDS011;8983;53.156;17.960;2022-12-18T00:14:40;54.97;;;20.10;;
17725;SDS011;8983;53.156;17.960;2022-12-18T00:17:08;66.23;;;22.40;;
17725;SDS011;8983;53.156;17.960;2022-12-18T00:19:36;68.30;;;23.13;;
17725;SDS011;8983;53.156;17.960;2022-12-18T00:22:04;68.53;;;25.20;;
17725;SDS011;8983;53.156;17.960;2022-12-18T00:24:34;70.67;;;24.50;;
17725;SDS011;8983;53.156;17.960;2022-12-18T00:27:03;69.37;;;22.43;;
17725;SDS011;8983;53.156;17.960;2022-12-18T00:29:31;68.67;;;22.27;;
17725;SDS011;8983;53.156;17.960;2022-12-18T00:31:59;59.57;;;20.53;;
17725;SDS011;8983;53.156;17.960;2022-12-18T00:34:27;65.83;;;24.60;;
17725;SDS011;8983;53.156;17.960;2022-12-18T00:36:55;55.90;;;19.77;;
17725;SDS011;8983;53.156;17.960;2022-12-18T00:39:23;66.27;;;21.20;;
17725;SDS011;8983;53.156;17.960;2022-12-18T00:41:52;64.20;;;22.23;;
17725;SDS011;8983;53.156;17.960;2022-12-18T00:44:38;61.47;;;21.27;;
17725;SDS011;8983;53.156;17.960;2022-12-18T00:47:06;68.07;;;23.53;;
17725;SDS011;8983;53.156;17.960;2022-12-18T00:49:34;63.30;;;21.50;;
17725;SDS011;8983;53.156;17.960;2022-12-18T00:52:02;60.23;;;19.87;;
17725;SDS011;8983;53.156;17.960;2022-12-18T00:54:30;56.27;;;19.70;;
17725;SDS011;8983;53.156;17.960;2022-12-18T00:56:59;49.23;;;17.47;;
17725;SDS011;8983;53.156;17.960;2022-12-18T00:59:28;42.73;;;18.37;;
17725;SDS011;8983;53.156;17.960;2022-12-18T01:01:57;44.50;;;17.73;;
17725;SDS011;8983;53.156;17.960;2022-12-18T01:04:25;79.23;;;24.40;;
17725;SDS011;8983;53.156;17.960;2022-12-18T01:06:53;63.00;;;20.67;;
17725;SDS011;8983;53.156;17.960;2022-12-18T01:09:21;62.17;;;22.00;;
17725;SDS011;8983;53.156;17.960;2022-12-18T01:11:49;55.07;;;20.47;;
17725;SDS011;8983;53.156;17.960;2022-12-18T01:14:19;54.03;;;19.87;;
17725;SDS011;8983;53.156;17.960;2022-12-18T01:16:47;46.80;;;18.53;;
17725;SDS011;8983;53.156;17.960;2022-12-18T01:19:15;47.87;;;19.97;;
17725;SDS011;8983;53.156;17.960;2022-12-18T01:21:43;51.07;;;18.77;;
17725;SDS011;8983;53.156;17.960;2022-12-18T01:24:11;59.93;;;20.80;;
17725;SDS011;8983;53.156;17.960;2022-12-18T01:26:39;58.43;;;21.23;;
17725;SDS011;8983;53.156;17.960;2022-12-18T01:29:07;60.90;;;20.83;;
17725;SDS011;8983;53.156;17.960;2022-12-18T01:31:36;61.43;;;20.37;;
17725;SDS011;8983;53.156;17.960;2022-12-18T01:34:05;53.10;;;18.50;;
17725;SDS011;8983;53.156;17.960;2022-12-18T01:36:35;54.03;;;18.93;;
17725;SDS011;8983;53.156;17.960;2022-12-18T01:39:06;62.17;;;19.90;;
17725;SDS011;8983;53.156;17.960;2022-12-18T01:41:37;60.37;;;21.97;;
17725;SDS011;8983;53.156;17.960;2022-12-18T01:47:30;51.73;;;18.57;;
17725;SDS011;8983;53.156;17.960;2022-12-18T01:50:01;50.23;;;18.63;;
17725;SDS011;8983;53.156;17.960;2022-12-18T01:52:31;46.40;;;16.83;;
17725;SDS011;8983;53.156;17.960;2022-12-18T01:55:01;46.80;;;17.50;;
17725;SDS011;8983;53.156;17.960;2022-12-18T01:57:31;40.43;;;14.73;;
17725;SDS011;8983;53.156;17.960;2022-12-18T02:00:02;46.87;;;17.50;;
17725;SDS011;8983;53.156;17.960;2022-12-18T02:02:34;50.37;;;16.07;;
17725;SDS011;8983;53.156;17.960;2022-12-18T02:05:02;41.17;;;15.23;;
17725;SDS011;8983;53.156;17.960;2022-12-18T02:07:34;43.57;;;13.73;;
17725;SDS011;8983;53.156;17.960;2022-12-18T02:10:08;31.33;;;13.03;;
17725;SDS011;8983;53.156;17.960;2022-12-18T02:12:43;31.30;;;13.40;;
17725;SDS011;8983;53.156;17.960;2022-12-18T02:15:18;38.60;;;14.23;;
17725;SDS011;8983;53.156;17.960;2022-12-18T02:17:54;30.20;;;13.17;;
17725;SDS011;8983;53.156;17.960;2022-12-18T02:20:26;30.83;;;12.73;;
17725;SDS011;8983;53.156;17.960;2022-12-18T02:23:04;36.57;;;13.87;;
17725;SDS011;8983;53.156;17.960;2022-12-18T02:25:40;50.57;;;17.17;;
17725;SDS011;8983;53.156;17.960;2022-12-18T02:28:34;52.10;;;20.70;;
17725;SDS011;8983;53.156;17.960;2022-12-18T02:31:07;42.93;;;16.30;;
17725;SDS011;8983;53.156;17.960;2022-12-18T02:33:39;34.47;;;13.63;;
17725;SDS011;8983;53.156;17.960;2022-12-18T02:36:09;38.70;;;14.27;;
17725;SDS011;8983;53.156;17.960;2022-12-18T02:38:41;34.47;;;13.77;;
17725;SDS011;8983;53.156;17.960;2022-12-18T02:41:11;34.17;;;14.00;;
17725;SDS011;8983;53.156;17.960;2022-12-18T02:43:45;38.93;;;14.07;;
17725;SDS011;8983;53.156;17.960;2022-12-18T02:46:23;35.10;;;14.03;;
17725;SDS011;8983;53.156;17.960;2022-12-18T02:48:56;39.13;;;14.90;;
17725;SDS011;8983;53.156;17.960;2022-12-18T02:51:30;39.77;;;14.97;;
17725;SDS011;8983;53.156;17.960;2022-12-18T02:54:06;35.97;;;14.73;;
17725;SDS011;8983;53.156;17.960;2022-12-18T02:56:45;43.13;;;14.73;;
17725;SDS011;8983;53.156;17.960;2022-12-18T02:59:17;37.27;;;16.07;;
17725;SDS011;8983;53.156;17.960;2022-12-18T03:01:49;42.63;;;15.83;;
17725;SDS011;8983;53.156;17.960;2022-12-18T03:04:22;46.60;;;14.90;;
17725;SDS011;8983;53.156;17.960;2022-12-18T03:06:56;36.30;;;15.07;;
17725;SDS011;8983;53.156;17.960;2022-12-18T03:09:27;43.60;;;16.63;;
17725;SDS011;8983;53.156;17.960;2022-12-18T03:12:02;46.13;;;15.80;;
17725;SDS011;8983;53.156;17.960;2022-12-18T03:14:52;36.20;;;14.63;;
17725;SDS011;8983;53.156;17.960;2022-12-18T03:17:25;41.57;;;14.00;;
17725;SDS011;8983;53.156;17.960;2022-12-18T03:19:56;40.40;;;14.80;;
17725;SDS011;8983;53.156;17.960;2022-12-18T03:22:27;40.43;;;13.93;;
17725;SDS011;8983;53.156;17.960;2022-12-18T03:24:58;37.60;;;14.87;;
17725;SDS011;8983;53.156;17.960;2022-12-18T03:27:30;37.13;;;13.97;;
17725;SDS011;8983;53.156;17.960;2022-12-18T03:30:02;37.07;;;14.20;;
17725;SDS011;8983;53.156;17.960;2022-12-18T03:32:36;42.33;;;14.33;;
17725;SDS011;8983;53.156;17.960;2022-12-18T03:35:08;40.87;;;14.93;;
17725;SDS011;8983;53.156;17.960;2022-12-18T03:37:40;29.33;;;12.03;;
17725;SDS011;8983;53.156;17.960;2022-12-18T03:40:08;31.73;;;12.07;;
17725;SDS011;8983;53.156;17.960;2022-12-18T03:42:39;27.27;;;12.80;;
17725;SDS011;8983;53.156;17.960;2022-12-18T03:45:14;34.60;;;11.50;;
17725;SDS011;8983;53.156;17.960;2022-12-18T03:47:52;26.80;;;10.77;;
17725;SDS011;8983;53.156;17.960;2022-12-18T03:50:29;27.93;;;11.77;;
17725;SDS011;8983;53.156;17.960;2022-12-18T03:53:06;27.97;;;12.27;;
17725;SDS011;8983;53.156;17.960;2022-12-18T03:55:42;23.43;;;11.13;;
17725;SDS011;8983;53.156;17.960;2022-12-18T03:58:13;25.57;;;10.77;;
17725;SDS011;8983;53.156;17.960;2022-12-18T04:00:46;27.43;;;11.43;;
17725;SDS011;8983;53.156;17.960;2022-12-18T04:03:17;26.43;;;11.13;;
17725;SDS011;8983;53.156;17.960;2022-12-18T04:05:53;35.93;;;12.40;;
17725;SDS011;8983;53.156;17.960;2022-12-18T04:08:22;24.07;;;11.57;;
17725;SDS011;8983;53.156;17.960;2022-12-18T04:10:52;29.13;;;11.10;;
17725;SDS011;8983;53.156;17.960;2022-12-18T04:13:27;31.77;;;13.03;;
17725;SDS011;8983;53.156;17.960;2022-12-18T04:15:56;33.73;;;12.77;;
17725;SDS011;8983;53.156;17.960;2022-12-18T04:18:24;31.43;;;10.97;;
17725;SDS011;8983;53.156;17.960;2022-12-18T04:20:52;30.63;;;11.37;;
17725;SDS011;8983;53.156;17.960;2022-12-18T04:23:20;27.73;;;11.83;;
17725;SDS011;8983;53.156;17.960;2022-12-18T04:25:49;28.47;;;11.50;;
17725;SDS011;8983;53.156;17.960;2022-12-18T04:28:17;28.57;;;11.63;;
17725;SDS011;8983;53.156;17.960;2022-12-18T04:30:46;30.80;;;12.00;;
17725;SDS011;8983;53.156;17.960;2022-12-18T04:33:16;32.70;;;12.37;;
17725;SDS011;8983;53.156;17.960;2022-12-18T04:35:44;29.30;;;11.77;;
17725;SDS011;8983;53.156;17.960;2022-12-18T04:38:12;25.33;;;10.60;;
17725;SDS011;8983;53.156;17.960;2022-12-18T04:40:40;24.77;;;10.63;;
17725;SDS011;8983;53.156;17.960;2022-12-18T04:43:08;30.63;;;12.27;;
17725;SDS011;8983;53.156;17.960;2022-12-18T04:45:37;29.13;;;11.57;;
17725;SDS011;8983;53.156;17.960;2022-12-18T04:48:07;25.47;;;11.30;;
17725;SDS011;8983;53.156;17.960;2022-12-18T04:50:35;28.63;;;11.53;;
17725;SDS011;8983;53.156;17.960;2022-12-18T04:53:03;26.63;;;12.13;;
17725;SDS011;8983;53.156;17.960;2022-12-18T04:55:31;27.93;;;11.83;;
17725;SDS011;8983;53.156;17.960;2022-12-18T04:57:59;33.43;;;13.33;;
17725;SDS011;8983;53.156;17.960;2022-12-18T05:00:27;28.17;;;12.67;;
17725;SDS011;8983;53.156;17.960;2022-12-18T05:02:55;25.93;;;11.93;;
17725;SDS011;8983;53.156;17.960;2022-12-18T05:05:25;32.23;;;13.23;;
17725;SDS011;8983;53.156;17.960;2022-12-18T05:07:53;25.20;;;12.70;;
17725;SDS011;8983;53.156;17.960;2022-12-18T05:10:21;32.07;;;12.77;;
17725;SDS011;8983;53.156;17.960;2022-12-18T05:12:49;27.73;;;12.00;;
17725;SDS011;8983;53.156;17.960;2022-12-18T05:15:27;32.87;;;12.60;;
17725;SDS011;8983;53.156;17.960;2022-12-18T05:17:56;31.40;;;12.53;;
17725;SDS011;8983;53.156;17.960;2022-12-18T05:20:26;30.80;;;12.10;;
17725;SDS011;8983;53.156;17.960;2022-12-18T05:22:54;31.93;;;13.50;;
17725;SDS011;8983;53.156;17.960;2022-12-18T05:25:23;27.17;;;12.53;;
17725;SDS011;8983;53.156;17.960;2022-12-18T05:27:51;30.53;;;11.97;;
17725;SDS011;8983;53.156;17.960;2022-12-18T05:30:19;36.87;;;13.20;;
17725;SDS011;8983;53.156;17.960;2022-12-18T05:32:47;33.53;;;13.63;;
17725;SDS011;8983;53.156;17.960;2022-12-18T05:35:15;34.20;;;12.73;;
17725;SDS011;8983;53.156;17.960;2022-12-18T05:37:44;32.60;;;12.77;;
17725;SDS011;8983;53.156;17.960;2022-12-18T05:40:12;30.33;;;13.37;;
17725;SDS011;8983;53.156;17.960;2022-12-18T05:42:40;37.87;;;14.20;;
17725;SDS011;8983;53.156;17.960;2022-12-18T05:45:08;31.13;;;12.63;;
17725;SDS011;8983;53.156;17.960;2022-12-18T05:47:36;39.07;;;15.20;;
17725;SDS011;8983;53.156;17.960;2022-12-18T05:50:05;33.33;;;13.63;;
17725;SDS011;8983;53.156;17.960;2022-12-18T05:52:34;36.23;;;13.67;;
17725;SDS011;8983;53.156;17.960;2022-12-18T05:55:04;41.03;;;16.27;;
17725;SDS011;8983;53.156;17.960;2022-12-18T05:57:32;36.70;;;13.83;;
17725;SDS011;8983;53.156;17.960;2022-12-18T06:00:00;44.07;;;15.67;;
17725;SDS011;8983;53.156;17.960;2022-12-18T06:02:28;39.67;;;15.53;;
17725;SDS011;8983;53.156;17.960;2022-12-18T06:04:56;41.57;;;15.40;;
17725;SDS011;8983;53.156;17.960;2022-12-18T06:07:24;37.33;;;14.83;;
17725;SDS011;8983;53.156;17.960;2022-12-18T06:09:52;37.50;;;15.50;;
17725;SDS011;8983;53.156;17.960;2022-12-18T06:12:21;39.23;;;15.40;;
17725;SDS011;8983;53.156;17.960;2022-12-18T06:14:49;41.77;;;15.90;;
17725;SDS011;8983;53.156;17.960;2022-12-18T06:17:17;38.00;;;15.23;;
17725;SDS011;8983;53.156;17.960;2022-12-18T06:19:45;38.83;;;14.60;;
17725;SDS011;8983;53.156;17.960;2022-12-18T06:22:13;45.07;;;16.00;;
17725;SDS011;8983;53.156;17.960;2022-12-18T06:24:40;41.30;;;15.53;;
17725;SDS011;8983;53.156;17.960;2022-12-18T06:27:08;35.83;;;14.80;;
17725;SDS011;8983;53.156;17.960;2022-12-18T06:29:38;46.87;;;16.37;;
17725;SDS011;8983;53.156;17.960;2022-12-18T06:32:06;42.33;;;15.37;;
17725;SDS011;8983;53.156;17.960;2022-12-18T06:34:36;47.50;;;16.83;;
17725;SDS011;8983;53.156;17.960;2022-12-18T06:37:04;44.13;;;16.80;;
17725;SDS011;8983;53.156;17.960;2022-12-18T06:39:32;40.33;;;16.00;;
17725;SDS011;8983;53.156;17.960;2022-12-18T06:42:00;43.20;;;18.83;;
17725;SDS011;8983;53.156;17.960;2022-12-18T06:44:28;53.13;;;17.13;;
17725;SDS011;8983;53.156;17.960;2022-12-18T06:46:58;49.20;;;18.67;;
17725;SDS011;8983;53.156;17.960;2022-12-18T06:49:26;49.27;;;17.57;;
17725;SDS011;8983;53.156;17.960;2022-12-18T06:51:56;53.13;;;20.00;;
17725;SDS011;8983;53.156;17.960;2022-12-18T06:54:24;52.40;;;18.40;;
17725;SDS011;8983;53.156;17.960;2022-12-18T06:56:51;46.50;;;16.63;;
17725;SDS011;8983;53.156;17.960;2022-12-18T06:59:19;43.60;;;17.20;;
17725;SDS011;8983;53.156;17.960;2022-12-18T07:01:47;42.83;;;16.33;;
17725;SDS011;8983;53.156;17.960;2022-12-18T07:04:17;50.57;;;16.47;;
17725;SDS011;8983;53.156;17.960;2022-12-18T07:06:45;52.27;;;19.17;;
17725;SDS011;8983;53.156;17.960;2022-12-18T07:09:13;45.30;;;17.30;;
17725;SDS011;8983;53.156;17.960;2022-12-18T07:11:41;39.33;;;14.77;;
17725;SDS011;8983;53.156;17.960;2022-12-18T07:14:09;41.90;;;16.43;;
17725;SDS011;8983;53.156;17.960;2022-12-18T07:16:37;37.83;;;14.43;;
17725;SDS011;8983;53.156;17.960;2022-12-18T07:19:05;42.97;;;14.67;;
17725;SDS011;8983;53.156;17.960;2022-12-18T07:21:34;42.83;;;14.37;;
17725;SDS011;8983;53.156;17.960;2022-12-18T07:24:02;43.97;;;15.87;;
17725;SDS011;8983;53.156;17.960;2022-12-18T07:26:30;38.90;;;15.40;;
17725;SDS011;8983;53.156;17.960;2022-12-18T07:28:58;40.90;;;15.43;;
17725;SDS011;8983;53.156;17.960;2022-12-18T07:31:26;52.47;;;16.33;;
17725;SDS011;8983;53.156;17.960;2022-12-18T07:33:55;46.17;;;16.07;;
17725;SDS011;8983;53.156;17.960;2022-12-18T07:36:23;44.67;;;16.23;;
17725;SDS011;8983;53.156;17.960;2022-12-18T07:38:53;38.70;;;14.00;;
17725;SDS011;8983;53.156;17.960;2022-12-18T07:41:22;34.90;;;13.43;;
17725;SDS011;8983;53.156;17.960;2022-12-18T07:43:50;46.53;;;16.10;;
17725;SDS011;8983;53.156;17.960;2022-12-18T07:46:19;39.37;;;13.87;;
17725;SDS011;8983;53.156;17.960;2022-12-18T07:48:47;40.97;;;15.47;;
17725;SDS011;8983;53.156;17.960;2022-12-18T07:51:16;37.90;;;14.43;;
17725;SDS011;8983;53.156;17.960;2022-12-18T07:53:45;36.20;;;13.80;;
17725;SDS011;8983;53.156;17.960;2022-12-18T07:56:19;31.60;;;12.27;;
17725;SDS011;8983;53.156;17.960;2022-12-18T07:58:56;38.50;;;15.10;;
17725;SDS011;8983;53.156;17.960;2022-12-18T08:01:25;28.77;;;13.07;;
17725;SDS011;8983;53.156;17.960;2022-12-18T08:03:54;30.73;;;12.10;;
17725;SDS011;8983;53.156;17.960;2022-12-18T08:06:22;25.90;;;12.17;;
17725;SDS011;8983;53.156;17.960;2022-12-18T08:08:50;28.70;;;12.23;;
17725;SDS011;8983;53.156;17.960;2022-12-18T08:11:21;33.07;;;14.40;;
17725;SDS011;8983;53.156;17.960;2022-12-18T08:13:50;30.13;;;12.60;;
17725;SDS011;8983;53.156;17.960;2022-12-18T08:16:18;29.43;;;13.27;;
17725;SDS011;8983;53.156;17.960;2022-12-18T08:18:47;31.80;;;13.53;;
17725;SDS011;8983;53.156;17.960;2022-12-18T08:21:16;27.07;;;13.23;;
17725;SDS011;8983;53.156;17.960;2022-12-18T08:23:47;29.40;;;12.87;;
17725;SDS011;8983;53.156;17.960;2022-12-18T08:26:16;29.03;;;12.10;;
17725;SDS011;8983;53.156;17.960;2022-12-18T08:28:47;25.67;;;12.27;;
17725;SDS011;8983;53.156;17.960;2022-12-18T08:31:16;28.43;;;13.40;;
17725;SDS011;8983;53.156;17.960;2022-12-18T08:33:45;20.77;;;10.30;;
17725;SDS011;8983;53.156;17.960;2022-12-18T08:36:15;24.40;;;11.20;;
17725;SDS011;8983;53.156;17.960;2022-12-18T08:38:43;28.63;;;11.97;;
17725;SDS011;8983;53.156;17.960;2022-12-18T08:41:12;28.17;;;11.40;;
17725;SDS011;8983;53.156;17.960;2022-12-18T08:43:41;35.67;;;13.37;;
17725;SDS011;8983;53.156;17.960;2022-12-18T08:46:31;27.40;;;11.67;;
17725;SDS011;8983;53.156;17.960;2022-12-18T08:49:01;25.67;;;11.57;;
17725;SDS011;8983;53.156;17.960;2022-12-18T08:51:29;30.77;;;12.90;;
17725;SDS011;8983;53.156;17.960;2022-12-18T08:53:57;24.63;;;10.70;;
17725;SDS011;8983;53.156;17.960;2022-12-18T08:56:25;27.67;;;11.67;;
17725;SDS011;8983;53.156;17.960;2022-12-18T08:58:54;24.27;;;12.07;;
17725;SDS011;8983;53.156;17.960;2022-12-18T09:01:22;33.03;;;13.00;;
17725;SDS011;8983;53.156;17.960;2022-12-18T09:03:52;28.07;;;11.43;;
17725;SDS011;8983;53.156;17.960;2022-12-18T09:06:21;31.10;;;12.63;;
17725;SDS011;8983;53.156;17.960;2022-12-18T09:08:49;36.47;;;13.77;;
17725;SDS011;8983;53.156;17.960;2022-12-18T09:11:19;30.43;;;13.90;;
17725;SDS011;8983;53.156;17.960;2022-12-18T09:13:48;27.17;;;11.90;;
17725;SDS011;8983;53.156;17.960;2022-12-18T09:16:17;22.07;;;10.87;;
17725;SDS011;8983;53.156;17.960;2022-12-18T09:18:46;26.87;;;11.53;;
17725;SDS011;8983;53.156;17.960;2022-12-18T09:21:16;31.90;;;12.80;;
17725;SDS011;8983;53.156;17.960;2022-12-18T09:23:48;33.50;;;14.67;;
17725;SDS011;8983;53.156;17.960;2022-12-18T09:26:16;38.87;;;16.90;;
17725;SDS011;8983;53.156;17.960;2022-12-18T09:28:44;33.47;;;14.03;;
17725;SDS011;8983;53.156;17.960;2022-12-18T09:31:16;34.50;;;14.70;;
17725;SDS011;8983;53.156;17.960;2022-12-18T09:33:46;32.53;;;14.40;;
17725;SDS011;8983;53.156;17.960;2022-12-18T09:36:17;33.40;;;13.90;;
17725;SDS011;8983;53.156;17.960;2022-12-18T09:38:47;37.37;;;13.47;;
17725;SDS011;8983;53.156;17.960;2022-12-18T09:41:17;34.93;;;14.93;;
17725;SDS011;8983;53.156;17.960;2022-12-18T09:44:05;39.93;;;16.00;;
17725;SDS011;8983;53.156;17.960;2022-12-18T09:46:42;49.63;;;19.50;;
17725;SDS011;8983;53.156;17.960;2022-12-18T09:49:14;32.60;;;15.13;;
17725;SDS011;8983;53.156;17.960;2022-12-18T09:51:49;43.50;;;15.07;;
17725;SDS011;8983;53.156;17.960;2022-12-18T09:54:22;36.70;;;14.87;;
17725;SDS011;8983;53.156;17.960;2022-12-18T09:56:54;33.97;;;14.23;;
17725;SDS011;8983;53.156;17.960;2022-12-18T09:59:23;41.77;;;15.97;;
17725;SDS011;8983;53.156;17.960;2022-12-18T10:01:53;40.87;;;14.80;;
17725;SDS011;8983;53.156;17.960;2022-12-18T10:04:21;40.63;;;15.27;;
17725;SDS011;8983;53.156;17.960;2022-12-18T10:06:54;39.53;;;15.77;;
17725;SDS011;8983;53.156;17.960;2022-12-18T10:09:36;28.30;;;12.20;;
17725;SDS011;8983;53.156;17.960;2022-12-18T10:12:08;29.00;;;13.47;;
17725;SDS011;8983;53.156;17.960;2022-12-18T10:14:46;38.20;;;15.17;;
17725;SDS011;8983;53.156;17.960;2022-12-18T10:17:23;33.53;;;14.47;;
17725;SDS011;8983;53.156;17.960;2022-12-18T10:19:55;34.97;;;13.13;;
17725;SDS011;8983;53.156;17.960;2022-12-18T10:22:41;35.67;;;15.17;;
17725;SDS011;8983;53.156;17.960;2022-12-18T10:25:19;27.43;;;11.63;;
17725;SDS011;8983;53.156;17.960;2022-12-18T10:27:51;28.40;;;13.13;;
17725;SDS011;8983;53.156;17.960;2022-12-18T10:30:22;36.87;;;14.50;;
17725;SDS011;8983;53.156;17.960;2022-12-18T10:32:51;35.33;;;14.70;;
17725;SDS011;8983;53.156;17.960;2022-12-18T10:35:21;37.37;;;14.77;;
17725;SDS011;8983;53.156;17.960;2022-12-18T10:38:02;32.63;;;15.03;;
17725;SDS011;8983;53.156;17.960;2022-12-18T10:40:32;31.50;;;13.20;;
17725;SDS011;8983;53.156;17.960;2022-12-18T10:43:14;36.33;;;14.27;;
17725;SDS011;8983;53.156;17.960;2022-12-18T10:45:57;36.50;;;13.63;;
17725;SDS011;8983;53.156;17.960;2022-12-18T10:48:32;36.90;;;15.60;;
17725;SDS011;8983;53.156;17.960;2022-12-18T10:51:01;33.33;;;14.97;;
17725;SDS011;8983;53.156;17.960;2022-12-18T10:53:41;35.40;;;14.07;;
17725;SDS011;8983;53.156;17.960;2022-12-18T10:56:09;36.77;;;14.07;;
17725;SDS011;8983;53.156;17.960;2022-12-18T10:58:38;41.13;;;15.50;;
17725;SDS011;8983;53.156;17.960;2022-12-18T11:01:08;40.30;;;15.37;;
17725;SDS011;8983;53.156;17.960;2022-12-18T11:03:38;49.47;;;15.37;;
17725;SDS011;8983;53.156;17.960;2022-12-18T11:06:09;35.97;;;14.50;;
17725;SDS011;8983;53.156;17.960;2022-12-18T11:08:39;35.90;;;14.73;;
17725;SDS011;8983;53.156;17.960;2022-12-18T11:11:19;34.70;;;14.20;;
17725;SDS011;8983;53.156;17.960;2022-12-18T11:13:51;51.37;;;19.27;;
17725;SDS011;8983;53.156;17.960;2022-12-18T11:16:30;44.23;;;18.30;;
17725;SDS011;8983;53.156;17.960;2022-12-18T11:19:10;62.00;;;23.40;;
17725;SDS011;8983;53.156;17.960;2022-12-18T11:21:48;49.10;;;18.07;;
17725;SDS011;8983;53.156;17.960;2022-12-18T11:24:20;51.13;;;18.47;;
17725;SDS011;8983;53.156;17.960;2022-12-18T11:26:52;66.07;;;22.97;;
17725;SDS011;8983;53.156;17.960;2022-12-18T11:29:28;51.00;;;19.80;;
17725;SDS011;8983;53.156;17.960;2022-12-18T11:35:04;54.43;;;19.30;;
17725;SDS011;8983;53.156;17.960;2022-12-18T11:37:41;50.90;;;18.70;;
17725;SDS011;8983;53.156;17.960;2022-12-18T11:40:15;51.60;;;19.77;;
17725;SDS011;8983;53.156;17.960;2022-12-18T11:42:48;49.33;;;17.63;;
17725;SDS011;8983;53.156;17.960;2022-12-18T11:45:24;54.90;;;18.13;;
17725;SDS011;8983;53.156;17.960;2022-12-18T11:47:56;51.43;;;19.03;;
17725;SDS011;8983;53.156;17.960;2022-12-18T11:50:31;49.13;;;17.53;;
17725;SDS011;8983;53.156;17.960;2022-12-18T11:53:09;57.83;;;18.23;;
17725;SDS011;8983;53.156;17.960;2022-12-18T11:55:41;46.37;;;17.80;;
17725;SDS011;8983;53.156;17.960;2022-12-18T11:58:18;52.30;;;17.43;;
17725;SDS011;8983;53.156;17.960;2022-12-18T12:00:58;58.57;;;19.80;;
17725;SDS011;8983;53.156;17.960;2022-12-18T12:03:39;49.53;;;17.47;;
17725;SDS011;8983;53.156;17.960;2022-12-18T12:06:24;51.33;;;17.60;;
17725;SDS011;8983;53.156;17.960;2022-12-18T12:09:02;58.67;;;20.63;;
17725;SDS011;8983;53.156;17.960;2022-12-18T12:11:41;62.03;;;19.57;;
17725;SDS011;8983;53.156;17.960;2022-12-18T12:14:24;53.93;;;18.93;;
17725;SDS011;8983;53.156;17.960;2022-12-18T12:17:01;49.73;;;19.73;;
17725;SDS011;8983;53.156;17.960;2022-12-18T12:19:40;50.33;;;16.47;;
17725;SDS011;8983;53.156;17.960;2022-12-18T12:22:18;43.43;;;16.87;;
17725;SDS011;8983;53.156;17.960;2022-12-18T12:24:55;55.33;;;17.57;;
17725;SDS011;8983;53.156;17.960;2022-12-18T12:27:38;43.23;;;16.23;;
17725;SDS011;8983;53.156;17.960;2022-12-18T12:30:16;45.37;;;17.97;;
17725;SDS011;8983;53.156;17.960;2022-12-18T12:32:53;43.73;;;15.63;;
17725;SDS011;8983;53.156;17.960;2022-12-18T12:35:34;53.90;;;18.80;;
17725;SDS011;8983;53.156;17.960;2022-12-18T12:38:12;45.93;;;16.97;;
17725;SDS011;8983;53.156;17.960;2022-12-18T12:40:44;46.83;;;17.03;;
17725;SDS011;8983;53.156;17.960;2022-12-18T12:43:31;52.33;;;17.90;;
17725;SDS011;8983;53.156;17.960;2022-12-18T12:46:03;49.13;;;18.37;;
17725;SDS011;8983;53.156;17.960;2022-12-18T12:48:38;42.87;;;16.83;;
17725;SDS011;8983;53.156;17.960;2022-12-18T12:51:12;49.13;;;16.53;;
17725;SDS011;8983;53.156;17.960;2022-12-18T12:53:45;45.50;;;17.27;;
17725;SDS011;8983;53.156;17.960;2022-12-18T12:56:15;44.50;;;17.03;;
17725;SDS011;8983;53.156;17.960;2022-12-18T12:58:49;42.73;;;17.10;;
17725;SDS011;8983;53.156;17.960;2022-12-18T13:01:25;68.27;;;21.77;;
17725;SDS011;8983;53.156;17.960;2022-12-18T13:04:03;54.80;;;18.90;;
17725;SDS011;8983;53.156;17.960;2022-12-18T13:06:43;53.43;;;18.97;;
17725;SDS011;8983;53.156;17.960;2022-12-18T13:09:15;50.63;;;18.37;;
17725;SDS011;8983;53.156;17.960;2022-12-18T13:11:44;77.23;;;23.30;;
17725;SDS011;8983;53.156;17.960;2022-12-18T13:14:32;63.63;;;22.13;;
17725;SDS011;8983;53.156;17.960;2022-12-18T13:20:06;52.23;;;19.80;;
17725;SDS011;8983;53.156;17.960;2022-12-18T13:22:40;79.33;;;23.83;;
17725;SDS011;8983;53.156;17.960;2022-12-18T13:28:07;92.07;;;29.20;;
17725;SDS011;8983;53.156;17.960;2022-12-18T13:36:34;59.27;;;19.93;;
17725;SDS011;8983;53.156;17.960;2022-12-18T13:48:20;46.63;;;19.63;;
17725;SDS011;8983;53.156;17.960;2022-12-18T13:50:55;59.47;;;24.33;;
17725;SDS011;8983;53.156;17.960;2022-12-18T13:53:27;68.57;;;24.37;;
17725;SDS011;8983;53.156;17.960;2022-12-18T13:55:57;48.73;;;20.90;;
17725;SDS011;8983;53.156;17.960;2022-12-18T13:58:25;52.37;;;18.53;;
17725;SDS011;8983;53.156;17.960;2022-12-18T14:00:54;48.27;;;18.43;;
17725;SDS011;8983;53.156;17.960;2022-12-18T14:03:24;59.40;;;19.07;;
17725;SDS011;8983;53.156;17.960;2022-12-18T14:05:55;68.30;;;24.90;;
17725;SDS011;8983;53.156;17.960;2022-12-18T14:08:30;64.67;;;22.20;;
17725;SDS011;8983;53.156;17.960;2022-12-18T14:11:03;53.63;;;20.30;;
17725;SDS011;8983;53.156;17.960;2022-12-18T14:13:35;55.00;;;17.63;;
17725;SDS011;8983;53.156;17.960;2022-12-18T14:16:05;56.10;;;17.50;;
17725;SDS011;8983;53.156;17.960;2022-12-18T14:18:41;52.73;;;17.23;;
17725;SDS011;8983;53.156;17.960;2022-12-18T14:21:20;53.13;;;17.53;;
17725;SDS011;8983;53.156;17.960;2022-12-18T14:24:02;60.37;;;21.40;;
17725;SDS011;8983;53.156;17.960;2022-12-18T14:26:32;68.67;;;26.07;;
17725;SDS011;8983;53.156;17.960;2022-12-18T14:29:01;71.97;;;27.93;;
17725;SDS011;8983;53.156;17.960;2022-12-18T14:31:50;103.53;;;35.87;;
17725;SDS011;8983;53.156;17.960;2022-12-18T14:34:38;74.30;;;26.50;;
17725;SDS011;8983;53.156;17.960;2022-12-18T14:37:08;68.40;;;27.70;;
17725;SDS011;8983;53.156;17.960;2022-12-18T14:39:37;53.07;;;19.03;;
17725;SDS011;8983;53.156;17.960;2022-12-18T14:42:05;46.80;;;18.33;;
17725;SDS011;8983;53.156;17.960;2022-12-18T14:44:36;46.53;;;18.20;;
17725;SDS011;8983;53.156;17.960;2022-12-18T14:47:24;76.30;;;27.90;;
17725;SDS011;8983;53.156;17.960;2022-12-18T14:49:54;68.00;;;24.37;;
17725;SDS011;8983;53.156;17.960;2022-12-18T14:52:23;64.20;;;24.30;;
17725;SDS011;8983;53.156;17.960;2022-12-18T14:54:54;48.80;;;17.80;;
17725;SDS011;8983;53.156;17.960;2022-12-18T14:57:23;54.70;;;18.57;;
17725;SDS011;8983;53.156;17.960;2022-12-18T14:59:52;78.73;;;26.63;;
17725;SDS011;8983;53.156;17.960;2022-12-18T15:02:22;80.67;;;24.83;;
17725;SDS011;8983;53.156;17.960;2022-12-18T15:05:00;47.53;;;17.90;;
17725;SDS011;8983;53.156;17.960;2022-12-18T15:07:41;49.43;;;20.43;;
17725;SDS011;8983;53.156;17.960;2022-12-18T15:10:12;43.70;;;21.53;;
17725;SDS011;8983;53.156;17.960;2022-12-18T15:12:42;73.13;;;26.80;;
17725;SDS011;8983;53.156;17.960;2022-12-18T15:18:14;56.33;;;19.43;;